Latest Weather Observations for Cato Island

IDQ60801

Issued at 3:32 pm EST Friday 24 November 2017 (issued every 30 minutes, with the page automatically refreshed every 10 minutes)

About weather observations | Map of weather stations | Latest weather observations for QLD | Other Formats
Station Details ID: 200601 Name: CATO ISLAND Lat: -23.25 Lon: 155.54 Height: 6.3 m
Data from the previous 72 hours. | See also: Recent months for locations in Queensland
Date/Time
EST
Temp
°C
App
Temp
°C
Dew
Point
°C
Rel
Hum
%
Delta-T
°C
Wind Press
QNH
hPa
Press
MSL
hPa
Rain since
9am
mm
Dir  Spd
km/h
Gust
km/h
Spd
kts
Gust
kts
24/03:30pm 24.9 - - - - - 35 39 19 21 1010.7 - -
24/03:00pm 25.0 - - - - - 37 43 20 23 1010.6 1010.6 -
24/02:30pm 25.1 - - - - - 35 41 19 22 1010.7 - -
24/02:00pm 24.9 - - - - - 37 43 20 23 1010.7 1010.7 -
24/01:30pm 25.0 - - - - - 37 43 20 23 1010.8 - -
24/01:00pm 25.3 - - - - - 33 35 18 19 1011.0 1011.0 -
24/12:30pm 24.9 - - - - - 33 37 18 20 1011.4 - -
24/12:00pm 24.9 - - - - - 37 41 20 22 1011.5 1011.5 -
24/11:30am 24.9 - - - - - 32 35 17 19 1011.7 - -
24/11:00am 24.7 - - - - - 32 35 17 19 1012.1 1012.1 -
24/10:30am 24.8 - - - - - 32 35 17 19 1012.0 - -
24/10:00am 24.6 - - - - - 30 32 16 17 1012.1 1012.1 -
24/09:30am 24.5 - - - - - 28 33 15 18 1012.3 - -
24/09:00am 24.4 - - - - - 30 33 16 18 1012.3 1012.3 -
24/08:30am 24.6 - - - - - 26 32 14 17 1012.4 - -
24/08:00am 24.3 - - - - - 28 32 15 17 1012.5 1012.4 -
24/07:30am 24.2 - - - - - 28 32 15 17 1012.4 - -
24/07:00am 24.3 - - - - - 28 32 15 17 1012.3 1012.3 -
24/06:30am 23.9 - - - - - 26 32 14 17 1011.9 - -
24/06:00am 23.5 - - - - - 26 32 14 17 1011.8 1011.8 -
24/05:30am 23.7 - - - - - 30 33 16 18 1011.4 - -
24/05:00am 23.6 - - - - - 28 35 15 19 1011.4 1011.4 -
24/04:30am 23.5 - - - - - 30 33 16 18 1011.2 - -
24/04:00am 23.3 - - - - - 28 37 15 20 1010.9 1010.9 -
24/03:30am 23.5 - - - - - 32 37 17 20 1010.6 - -
24/03:00am 23.6 - - - - - 32 35 17 19 1010.5 1010.5 -
24/02:30am 23.6 - - - - - 30 35 16 19 1010.5 - -
24/02:00am 23.9 - - - - - 32 37 17 20 1010.6 1010.6 -
24/01:30am 23.8 - - - - - 33 41 18 22 1010.6 - -
24/01:00am 23.8 - - - - - 33 37 18 20 1011.0 1011.0 -
24/12:30am 23.9 - - - - - 35 39 19 21 1011.5 - -
24/12:00am 23.8 - - - - - 37 43 20 23 1011.7 1011.7 -
 
Date/Time
EST
Temp
°C
App
Temp
°C
Dew
Point
°C
Rel
Hum
%
Delta-T
°C
Wind Press
QNH
hPa
Press
MSL
hPa
Rain since
9am
mm
Dir  Spd
km/h
Gust
km/h
Spd
kts
Gust
kts
23/11:30pm 23.8 - - - - - 39 44 21 24 1012.0 - -
23/11:00pm 23.4 - - - - - 37 43 20 23 1012.3 1012.3 -
23/10:30pm 24.0 - - - - - 35 39 19 21 1012.5 - -
23/10:00pm 23.9 - - - - - 35 43 19 23 1012.8 1012.8 -
23/09:30pm 23.8 - - - - - 33 39 18 21 1013.0 - -
23/09:00pm 24.0 - - - - - 33 39 18 21 1012.9 1012.8 -
23/08:30pm 24.0 - - - - - 35 41 19 22 1012.7 - -
23/08:00pm 24.0 - - - - - 35 41 19 22 1012.7 1012.7 -
23/07:30pm 24.0 - - - - - 37 43 20 23 1012.4 - -
23/07:00pm 24.1 - - - - - 37 43 20 23 1012.2 1012.2 -
23/06:30pm 23.9 - - - - - 37 41 20 22 1012.1 - -
23/06:00pm 23.9 - - - - - 35 41 19 22 1011.7 1011.8 -
23/05:30pm 23.9 - - - - - 35 41 19 22 1011.6 - -
23/05:00pm 24.0 - - - - - 33 37 18 20 1011.4 1011.4 -
23/04:30pm 24.3 - - - - - 32 35 17 19 1011.1 - -
23/04:00pm 24.1 - - - - - 32 35 17 19 1011.0 1011.1 -
23/03:30pm 24.4 - - - - - 32 35 17 19 1010.8 - -
23/03:00pm 24.3 - - - - - 32 35 17 19 1010.7 1010.7 -
23/02:30pm 24.3 - - - - - 35 39 19 21 1010.7 - -
23/02:00pm 24.2 - - - - - 35 41 19 22 1010.9 1010.8 -
23/01:30pm 24.6 - - - - - 37 41 20 22 1011.1 - -
23/01:00pm 24.6 - - - - - 35 41 19 22 1011.1 1011.1 -
23/12:30pm 24.4 - - - - - 33 37 18 20 1011.4 - -
23/12:00pm 24.3 - - - - - 35 41 19 22 1011.6 1011.5 -
23/11:30am 24.3 - - - - - 35 41 19 22 1012.1 - -
23/11:00am 24.2 - - - - - 37 44 20 24 1012.1 1012.1 -
23/10:30am 24.4 - - - - - 37 43 20 23 1012.2 - -
23/10:00am 24.3 - - - - - 35 41 19 22 1012.5 1012.4 -
23/09:30am 24.6 - - - - - 35 41 19 22 1012.5 - -
23/09:00am 24.5 - - - - - 33 39 18 21 1012.5 1012.4 -
23/08:30am 24.2 - - - - - 35 39 19 21 1012.4 - -
23/08:00am 24.2 - - - - - 32 39 17 21 1012.3 1012.3 -
23/07:30am 24.1 - - - - - 33 39 18 21 1011.9 - -
23/07:00am 23.9 - - - - - 37 43 20 23 1011.7 1011.7 -
23/06:30am 23.8 - - - - - 35 43 19 23 1011.3 - -
23/06:00am 23.8 - - - - - 33 39 18 21 1011.3 1011.3 -
23/05:30am 23.7 - - - - - 32 37 17 20 1011.0 - -
23/05:00am 23.4 - - - - - 33 41 18 22 1010.8 1010.8 -
23/04:30am 23.2 - - - - - 35 41 19 22 1010.6 - -
23/04:00am 23.2 - - - - - 41 46 22 25 1010.2 1010.2 -
23/03:30am 23.2 - - - - - 37 43 20 23 1010.3 - -
23/03:00am 22.9 - - - - - 39 50 21 27 1010.3 1010.3 -
23/02:30am 23.6 - - - - - 39 44 21 24 1010.0 - -
23/02:00am 23.7 - - - - - 41 46 22 25 1010.0 1010.1 -
23/01:30am 23.8 - - - - - 39 46 21 25 1010.3 - -
23/01:00am 23.7 - - - - - 39 46 21 25 1010.6 1010.6 -
23/12:30am 23.8 - - - - - 41 50 22 27 1011.0 - -
23/12:00am 23.9 - - - - - 39 46 21 25 1011.3 1011.3 -
 
Date/Time
EST
Temp
°C
App
Temp
°C
Dew
Point
°C
Rel
Hum
%
Delta-T
°C
Wind Press
QNH
hPa
Press
MSL
hPa
Rain since
9am
mm
Dir  Spd
km/h
Gust
km/h
Spd
kts
Gust
kts
22/11:30pm 23.2 - - - - - 35 43 19 23 1011.7 - -
22/11:18pm 22.5 - - - - - 41 63 22 34 1012.2 - -
22/11:00pm 23.5 - - - - - 41 46 22 25 1012.2 1012.2 -
22/10:30pm 23.8 - - - - - 41 48 22 26 1012.6 - -
22/10:00pm 23.7 - - - - - 41 50 22 27 1012.5 1012.5 -
22/09:30pm 24.0 - - - - - 41 46 22 25 1012.6 - -
22/09:00pm 24.0 - - - - - 37 44 20 24 1012.6 1012.6 -
22/08:30pm 23.9 - - - - - 35 41 19 22 1012.6 - -
22/08:00pm 23.6 - - - - - 32 37 17 20 1012.7 1012.6 -
22/07:30pm 23.8 - - - - - 33 39 18 21 1012.4 - -
22/07:00pm 23.7 - - - - - 32 37 17 20 1012.6 1012.6 -
22/06:30pm 23.6 - - - - - 33 39 18 21 1012.6 - -
22/06:00pm 23.7 - - - - - 32 39 17 21 1012.3 1012.3 -
22/05:30pm 23.4 - - - - - 33 39 18 21 1011.9 - -
22/05:00pm 23.6 - - - - - 35 41 19 22 1011.6 1011.6 -
22/04:30pm 23.6 - - - - - 33 39 18 21 1011.6 - -
22/04:00pm 23.7 - - - - - 33 35 18 19 1011.4 1011.4 -
22/03:30pm 23.7 - - - - - 33 41 18 22 1011.2 - -
22/03:00pm 23.9 - - - - - 32 39 17 21 1011.5 1011.4 -
22/02:30pm 23.7 - - - - - 32 37 17 20 1011.7 - -
22/02:00pm 24.0 - - - - - 32 39 17 21 1011.6 1011.6 -
22/01:30pm 23.8 - - - - - 33 39 18 21 1011.6 - -
22/01:00pm 23.9 - - - - - 33 39 18 21 1011.7 1011.6 -
22/12:30pm 23.9 - - - - - 35 43 19 23 1012.0 - -
22/12:00pm 24.2 - - - - - 35 41 19 22 1012.1 1012.1 -
22/11:30am 23.9 - - - - - 33 39 18 21 1012.3 - -
22/11:00am 24.0 - - - - - 35 43 19 23 1012.5 1012.5 -
22/10:30am 24.1 - - - - - 33 43 18 23 1012.9 - -
22/10:00am 23.7 - - - - - 33 41 18 22 1013.2 1013.2 -
22/09:30am 23.6 - - - - - 35 43 19 23 1013.1 - -
22/09:00am 23.5 - - - - - 37 46 20 25 1013.0 1013.1 -
22/08:30am 23.9 - - - - - 35 41 19 22 1013.3 - -
22/08:00am 23.9 - - - - - 35 44 19 24 1013.1 1013.1 -
22/07:30am 23.7 - - - - - 37 43 20 23 1013.0 - -
22/07:00am 23.6 - - - - - 37 46 20 25 1012.9 1013.0 -
22/06:30am 23.2 - - - - - 39 44 21 24 1012.6 - -
22/06:00am 23.4 - - - - - 35 41 19 22 1012.5 1012.6 -
22/05:30am 23.1 - - - - - 35 43 19 23 1012.5 - -
22/05:00am 23.0 - - - - - 37 43 20 23 1012.0 1012.1 -
22/04:30am 23.0 - - - - - 37 43 20 23 1011.5 - -
22/04:00am 22.9 - - - - - 39 46 21 25 1011.3 1011.4 -
22/03:30am 22.8 - - - - - 37 43 20 23 1011.3 - -
22/03:00am 23.0 - - - - - 39 44 21 24 1011.1 1011.1 -
22/02:30am 23.0 - - - - - 39 46 21 25 1011.1 - -
22/02:00am 22.9 - - - - - 37 46 20 25 1011.5 1011.5 -
22/01:30am 22.9 - - - - - 37 43 20 23 1011.7 - -
22/01:00am 23.0 - - - - - 37 46 20 25 1012.0 1012.0 -
22/12:30am 23.0 - - - - - 35 41 19 22 1012.6 - -
22/12:00am 23.0 - - - - - 37 43 20 23 1012.9 1012.9 -
 
Date/Time
EST
Temp
°C
App
Temp
°C
Dew
Point
°C
Rel
Hum
%
Delta-T
°C
Wind Press
QNH
hPa
Press
MSL
hPa
Rain since
9am
mm
Dir  Spd
km/h
Gust
km/h
Spd
kts
Gust
kts
21/11:30pm 23.0 - - - - - 37 43 20 23 1013.1 - -
21/11:00pm 23.1 - - - - - 37 43 20 23 1013.7 1013.6 -
21/10:30pm 23.1 - - - - - 35 44 19 24 1013.9 - -
21/10:00pm 23.2 - - - - - 37 46 20 25 1014.1 1014.1 -
21/09:30pm 23.5 - - - - - 35 43 19 23 1014.3 - -
21/09:00pm 23.4 - - - - - 39 46 21 25 1014.1 1014.1 -
21/08:30pm 23.5 - - - - - 39 46 21 25 1014.1 - -
21/08:00pm 23.5 - - - - - 35 41 19 22 1014.2 1014.2 -
21/07:30pm 23.4 - - - - - 37 43 20 23 1014.1 - -
21/07:00pm 23.4 - - - - - 33 39 18 21 1014.1 1014.1 -
21/06:30pm 23.4 - - - - - 35 41 19 22 1013.9 - -
21/06:00pm 23.3 - - - - - 32 41 17 22 1013.9 1013.9 -
21/05:30pm 23.5 - - - - - 35 41 19 22 1013.5 - -
21/05:00pm 23.4 - - - - - 35 41 19 22 1013.3 1013.3 -
21/04:30pm 23.4 - - - - - 37 41 20 22 1013.0 - -
21/04:00pm 23.4 - - - - - 35 41 19 22 1013.0 1013.0 -

Other Formats:

Comma delimited format used in spreadsheet applications
http://www.bom.gov.au/fwo/IDQ60801/IDQ60801.94394.axf

JavaScript Object Notation format (JSON) in row-major order
http://www.bom.gov.au/fwo/IDQ60801/IDQ60801.94394.json